Time;durP1;ratioP1;P1;durP2;ratioP2;P2;SDS_P1;SDS_P2;PMS_P1;PMS_P2;Temp;Humidity;BMP_temperature;BMP_pressure;BME280_temperature;BME280_humidity;BME280_pressure;Samples;Min_cycle;Max_cycle;Signal;HPM_P1;HPM_P2
2022/01/27 00:01:07;;;;;;;13.68;8.85;;;;;;;1.19;84.94;95563.66;4768190;30;20202;-77
2022/01/27 00:03:38;;;;;;;12.40;7.40;;;;;;;1.16;84.88;95568.94;4768195;30;20295;-77
2022/01/27 00:06:09;;;;;;;8.43;5.78;;;;;;;1.11;84.57;95570.00;4767900;30;20211;-78
2022/01/27 00:08:42;;;;;;;12.48;8.40;;;;;;;1.06;85.45;95571.91;4768080;30;20224;-77
2022/01/27 00:11:12;;;;;;;15.05;8.32;;;;;;;1.03;85.77;95574.59;4767851;30;20225;-77
2022/01/27 00:13:46;;;;;;;10.73;7.18;;;;;;;1.09;85.73;95567.47;4738936;30;20241;-77
2022/01/27 00:16:17;;;;;;;6.78;6.10;;;;;;;1.06;85.47;95564.16;4787599;29;20232;-76
2022/01/27 00:18:45;;;;;;;10.32;6.80;;;;;;;1.05;86.00;95552.97;4840999;29;20210;-76
2022/01/27 00:21:15;;;;;;;8.95;6.80;;;;;;;1.02;86.39;95558.25;4891343;29;20211;-77
2022/01/27 00:23:44;;;;;;;8.40;6.15;;;;;;;0.95;86.77;95555.97;4929253;28;20205;-77
2022/01/27 00:26:11;;;;;;;7.75;6.45;;;;;;;0.89;87.02;95554.47;4971954;28;20296;-78
2022/01/27 00:28:38;;;;;;;10.88;6.88;;;;;;;0.83;86.90;95557.25;4971847;28;20201;-77
2022/01/27 00:31:05;;;;;;;10.93;6.45;;;;;;;0.93;87.68;95553.44;4939177;28;20243;-77
2022/01/27 00:33:32;;;;;;;10.48;6.90;;;;;;;0.95;87.37;95563.72;4971498;28;20222;-77
2022/01/27 00:35:59;;;;;;;8.02;6.90;;;;;;;0.94;87.66;95555.13;4971512;28;20228;-75
2022/01/27 00:38:28;;;;;;;10.98;7.85;;;;;;;0.99;87.90;95555.78;5016294;28;20200;-77
2022/01/27 00:40:56;;;;;;;10.32;8.35;;;;;;;0.97;87.57;95556.75;5052499;28;20282;-77
2022/01/27 00:43:23;;;;;;;10.02;8.43;;;;;;;0.94;87.15;95555.13;5052508;28;20219;-77
2022/01/27 00:45:51;;;;;;;13.20;7.70;;;;;;;1.00;87.39;95554.91;5052251;28;20205;-77
2022/01/27 00:48:17;;;;;;;11.50;8.07;;;;;;;1.04;86.93;95556.47;5052504;28;20201;-77
2022/01/27 00:50:48;;;;;;;10.27;7.00;;;;;;;1.09;86.86;95549.38;5051978;28;20209;-78
2022/01/27 00:53:28;;;;;;;15.02;9.40;;;;;;;1.12;85.79;95554.44;5052334;28;20196;-77
2022/01/27 00:56:05;;;;;;;12.13;6.63;;;;;;;1.08;85.84;95552.88;5052080;28;20230;-77
2022/01/27 00:58:44;;;;;;;9.10;6.60;;;;;;;1.14;88.76;95555.22;5052137;28;20207;-77
2022/01/27 01:01:15;;;;;;;14.02;7.88;;;;;;;1.07;87.10;95556.34;5052280;28;20718;-77
2022/01/27 01:03:45;;;;;;;12.57;8.68;;;;;;;1.00;86.50;95560.06;5052036;28;20205;-78
2022/01/27 01:06:25;;;;;;;11.55;8.05;;;;;;;0.99;86.60;95552.38;5002526;28;20228;-77
2022/01/27 01:09:43;;;;;;;11.38;7.40;;;;;;;1.02;86.77;95553.09;5005835;28;20195;-76
2022/01/27 01:14:53;;;;;;;14.80;8.73;;;;;;;1.11;86.89;95542.41;4990528;28;20206;-77
2022/01/27 01:17:32;;;;;;;11.50;8.10;;;;;;;1.10;86.88;95534.72;4990399;28;20285;-77
2022/01/27 01:31:27;;;;;;;15.77;9.07;;;;;;;1.27;85.65;95541.84;4875953;29;20945;-77
2022/01/27 01:34:00;;;;;;;9.00;6.95;;;;;;;1.32;85.53;95545.09;4875758;29;20218;-77
2022/01/27 01:36:36;;;;;;;10.68;8.07;;;;;;;1.44;85.25;95549.78;4876098;29;20647;-77
2022/01/27 01:39:05;;;;;;;10.23;8.17;;;;;;;1.52;84.29;95543.44;4875749;29;20665;-76
2022/01/27 01:41:32;;;;;;;10.40;8.07;;;;;;;1.59;83.95;95543.19;4875945;29;20460;-77
2022/01/27 01:44:00;;;;;;;8.77;7.13;;;;;;;1.64;83.24;95542.09;4875965;29;20456;-76
2022/01/27 01:46:27;;;;;;;11.73;6.77;;;;;;;1.61;83.61;95539.63;4875885;29;20481;-77
2022/01/27 01:48:54;;;;;;;12.68;6.20;;;;;;;1.66;83.41;95537.69;4875983;29;20448;-78
2022/01/27 01:51:26;;;;;;;8.13;6.63;;;;;;;1.60;83.16;95530.19;4904820;29;20213;-77
2022/01/27 01:53:54;;;;;;;10.25;6.25;;;;;;;1.56;83.41;95528.63;4932308;29;20700;-77
2022/01/27 01:56:21;;;;;;;8.38;7.07;;;;;;;1.52;82.90;95534.81;4901074;29;20236;-77
2022/01/27 01:58:49;;;;;;;8.37;5.60;;;;;;;1.41;83.71;95513.69;4902454;29;20211;-77
2022/01/27 02:01:18;;;;;;;5.90;4.27;;;;;;;1.33;83.56;95518.34;4951292;28;20851;-78
2022/01/27 02:03:46;;;;;;;7.50;6.10;;;;;;;1.32;83.54;95516.66;5012104;28;20459;-78
2022/01/27 02:06:19;;;;;;;6.95;4.95;;;;;;;1.19;83.97;95516.28;5046475;28;20232;-78
2022/01/27 02:09:04;;;;;;;7.78;5.03;;;;;;;1.22;84.24;95518.75;5055434;28;20283;-77
2022/01/27 02:19:45;;;;;;;14.35;7.75;;;;;;;1.12;84.51;95500.16;5055142;28;20204;-78
2022/01/27 02:22:13;;;;;;;13.90;7.10;;;;;;;1.05;85.51;95501.28;5055356;28;20211;-77
2022/01/27 02:24:40;;;;;;;8.43;4.93;;;;;;;1.12;85.44;95501.91;5055105;28;20208;-76
2022/01/27 02:27:07;;;;;;;8.93;5.85;;;;;;;1.12;85.18;95504.47;5055077;28;20209;-76
2022/01/27 02:29:34;;;;;;;19.10;8.48;;;;;;;1.15;85.42;95504.38;5055118;28;20205;-76
2022/01/27 02:32:03;;;;;;;14.48;6.70;;;;;;;1.12;84.75;95494.16;5055031;28;20238;-77
2022/01/27 02:34:30;;;;;;;14.18;7.50;;;;;;;1.09;85.18;95502.84;5054851;28;20203;-77
2022/01/27 02:36:56;;;;;;;12.48;5.72;;;;;;;1.09;85.92;95508.03;5054808;28;20228;-77
2022/01/27 02:39:25;;;;;;;10.48;5.85;;;;;;;1.14;85.09;95506.09;5003476;28;20199;-77
2022/01/27 02:41:58;;;;;;;13.63;8.00;;;;;;;1.22;85.09;95509.25;5054682;28;20216;-77
2022/01/27 02:44:34;;;;;;;10.40;5.43;;;;;;;1.11;85.12;95510.56;5054684;28;20255;-78
2022/01/27 02:47:01;;;;;;;11.60;6.57;;;;;;;1.12;85.11;95501.91;5019338;28;20200;-78
2022/01/27 02:49:28;;;;;;;8.18;5.55;;;;;;;1.12;84.81;95510.50;5054446;28;20201;-78
2022/01/27 02:51:55;;;;;;;5.13;4.68;;;;;;;1.09;85.24;95508.03;5054451;28;20206;-78
2022/01/27 02:54:22;;;;;;;7.75;5.32;;;;;;;1.10;85.87;95506.28;5054444;28;20473;-76
2022/01/27 02:56:51;;;;;;;5.05;4.07;;;;;;;1.08;86.38;95508.09;5054362;28;20224;-78
2022/01/27 02:59:20;;;;;;;5.38;4.88;;;;;;;1.06;86.03;95520.22;5054317;28;20680;-77
2022/01/27 03:01:48;;;;;;;4.32;3.92;;;;;;;1.12;86.28;95510.50;5054285;28;20264;-78
2022/01/27 03:04:15;;;;;;;4.63;3.58;;;;;;;1.07;87.02;95509.84;5054334;28;20212;-78
2022/01/27 03:06:42;;;;;;;5.80;4.57;;;;;;;1.03;87.49;95513.44;5054096;28;20207;-78
2022/01/27 03:09:09;;;;;;;9.07;5.47;;;;;;;1.00;87.70;95518.72;5054425;28;20216;-77
2022/01/27 03:11:43;;;;;;;13.73;8.43;;;;;;;1.06;87.68;95513.31;5054429;28;20659;-77
2022/01/27 03:14:13;;;;;;;7.03;6.15;;;;;;;1.10;87.40;95508.88;5052952;28;20210;-78
2022/01/27 03:16:40;;;;;;;7.35;6.50;;;;;;;1.15;88.39;95512.97;5054032;28;20251;-78
2022/01/27 03:19:07;;;;;;;7.65;5.63;;;;;;;1.12;88.02;95509.66;5054135;28;20690;-78
2022/01/27 03:21:34;;;;;;;8.07;5.88;;;;;;;1.19;87.97;95504.22;5053804;28;20208;-78
2022/01/27 03:24:02;;;;;;;5.07;4.47;;;;;;;1.16;87.08;95512.09;5053663;28;20200;-78
2022/01/27 03:26:29;;;;;;;6.95;6.25;;;;;;;1.17;86.96;95512.94;5053872;28;20217;-77
2022/01/27 03:28:57;;;;;;;7.93;6.07;;;;;;;1.14;87.18;95506.09;5054108;28;20199;-78
2022/01/27 03:31:26;;;;;;;6.25;5.28;;;;;;;1.10;86.94;95504.53;5053769;28;20259;-78
2022/01/27 03:33:53;;;;;;;6.72;5.90;;;;;;;1.05;87.70;95503.88;5053811;28;20214;-77
2022/01/27 03:36:21;;;;;;;6.28;5.20;;;;;;;1.03;87.69;95508.28;5053731;28;20228;-77
2022/01/27 03:38:48;;;;;;;12.55;9.25;;;;;;;1.14;94.13;95508.69;5053316;28;20201;-77
2022/01/27 03:41:19;;;;;;;6.07;5.38;;;;;;;1.17;89.01;95513.78;5002600;28;20240;-78
2022/01/27 03:43:47;;;;;;;5.88;5.15;;;;;;;1.13;87.68;95512.19;5053437;28;20565;-77
2022/01/27 03:46:15;;;;;;;6.93;5.30;;;;;;;1.17;87.79;95512.94;5053661;28;20210;-77
2022/01/27 03:48:43;;;;;;;9.85;7.53;;;;;;;1.14;87.30;95510.44;5053475;28;20211;-77
2022/01/27 03:51:11;;;;;;;10.80;7.65;;;;;;;1.21;87.65;95507.59;5053381;28;20197;-77
2022/01/27 03:53:37;;;;;;;16.15;9.45;;;;;;;1.27;87.52;95510.81;5053691;28;20200;-78
2022/01/27 03:56:05;;;;;;;12.73;7.85;;;;;;;1.23;87.20;95516.13;5053443;28;20247;-78
2022/01/27 03:58:33;;;;;;;6.70;5.95;;;;;;;1.21;86.88;95517.91;5053141;28;20200;-78
2022/01/27 04:01:01;;;;;;;8.68;6.40;;;;;;;1.32;87.08;95522.66;5001625;28;20195;-78
2022/01/27 04:03:29;;;;;;;10.05;5.70;;;;;;;1.29;86.67;95524.53;5053460;28;20835;-78
2022/01/27 04:06:05;;;;;;;6.38;5.47;;;;;;;1.30;86.60;95521.88;5053453;28;20208;-78
2022/01/27 04:08:32;;;;;;;5.43;4.60;;;;;;;1.21;86.60;95520.50;5053140;28;20630;-78
2022/01/27 04:10:59;;;;;;;5.50;4.90;;;;;;;1.11;87.07;95521.72;5053150;28;20208;-77
2022/01/27 04:13:26;;;;;;;6.75;5.15;;;;;;;1.09;86.47;95520.09;5053130;28;20200;-77
2022/01/27 04:15:53;;;;;;;4.63;4.00;;;;;;;1.11;87.01;95515.72;5052881;28;20311;-78
2022/01/27 04:18:19;;;;;;;5.97;4.50;;;;;;;1.08;87.26;95526.19;5053022;28;20207;-77
2022/01/27 04:20:46;;;;;;;5.85;5.10;;;;;;;1.07;87.40;95517.59;5001349;28;20210;-77
2022/01/27 04:23:17;;;;;;;9.57;6.25;;;;;;;1.11;87.62;95521.72;5052640;28;20648;-77
2022/01/27 04:25:44;;;;;;;6.75;4.97;;;;;;;1.12;87.74;95518.25;5052271;28;20569;-77
2022/01/27 04:28:14;;;;;;;5.40;4.88;;;;;;;1.12;87.99;95520.00;5053270;28;20565;-79
2022/01/27 04:30:40;;;;;;;5.88;4.65;;;;;;;1.06;87.92;95523.66;5003607;28;20204;-78
2022/01/27 04:33:08;;;;;;;7.50;4.85;;;;;;;1.00;87.76;95523.88;5053719;28;20650;-78
2022/01/27 04:35:39;;;;;;;6.10;5.30;;;;;;;0.98;88.89;95515.34;5053849;28;20215;-78
2022/01/27 04:38:20;;;;;;;6.10;5.50;;;;;;;1.01;88.89;95523.00;5054169;28;20283;-78
2022/01/27 04:40:56;;;;;;;12.68;7.20;;;;;;;1.04;89.05;95525.47;5053881;28;20215;-79
2022/01/27 04:43:30;;;;;;;32.55;16.65;;;;;;;1.00;88.98;95529.06;5053733;28;20202;-78
2022/01/27 04:46:05;;;;;;;30.27;15.52;;;;;;;1.03;88.63;95526.34;5053731;28;20267;-78
2022/01/27 04:48:37;;;;;;;8.52;5.57;;;;;;;1.00;88.46;95517.88;5053975;28;20210;-78
2022/01/27 04:51:07;;;;;;;25.90;12.68;;;;;;;1.07;88.42;95534.84;5053884;28;20208;-78
2022/01/27 04:53:38;;;;;;;15.30;8.60;;;;;;;1.01;87.99;95535.06;5053475;28;20221;-78
2022/01/27 04:56:10;;;;;;;19.27;11.82;;;;;;;1.01;88.80;95525.56;5052855;28;20278;-78
2022/01/27 04:58:37;;;;;;;43.08;19.35;;;;;;;0.99;88.38;95531.69;5053332;28;20280;-78
2022/01/27 05:01:05;;;;;;;25.30;13.13;;;;;;;0.97;88.90;95534.34;5042220;28;20196;-80
2022/01/27 05:03:39;;;;;;;27.73;13.30;;;;;;;2.68;97.87;95522.22;5033496;28;20449;-82
2022/01/27 05:06:06;;;;;;;30.50;14.93;;;;;;;2.66;84.80;95543.03;5033554;28;20459;-78
2022/01/27 05:08:33;;;;;;;13.90;7.63;;;;;;;2.39;82.94;95552.81;5033811;28;20216;-78
2022/01/27 05:11:03;;;;;;;7.60;6.15;;;;;;;2.08;83.04;95565.34;5033313;28;20479;-80
2022/01/27 05:13:39;;;;;;;8.27;5.95;;;;;;;1.75;84.15;95560.63;4984280;28;20538;-79
2022/01/27 05:16:06;;;;;;;6.15;5.45;;;;;;;1.58;84.94;95557.00;4985730;28;20233;-78
2022/01/27 05:18:33;;;;;;;5.88;5.30;;;;;;;1.43;85.89;95563.59;5033652;28;20232;-76
2022/01/27 05:21:00;;;;;;;7.28;6.00;;;;;;;1.32;87.39;95565.78;5032890;28;20206;-78
2022/01/27 05:23:27;;;;;;;7.93;6.22;;;;;;;1.23;88.34;95561.81;5033535;28;20218;-79
2022/01/27 05:25:54;;;;;;;9.40;6.95;;;;;;;1.17;88.91;95557.72;5050382;28;20205;-79
2022/01/27 05:28:21;;;;;;;13.20;6.32;;;;;;;1.17;88.72;95549.97;5052837;28;20204;-77
2022/01/27 05:30:49;;;;;;;8.40;5.68;;;;;;;1.12;88.93;95562.19;5052828;28;20200;-79
2022/01/27 05:33:16;;;;;;;10.98;7.55;;;;;;;1.06;89.19;95559.00;5053283;28;20207;-77
2022/01/27 05:35:45;;;;;;;8.02;6.25;;;;;;;1.02;88.90;95557.44;5002361;28;20226;-78
2022/01/27 05:38:14;;;;;;;8.48;6.85;;;;;;;1.01;89.40;95558.31;5055501;28;20290;-77
2022/01/27 05:40:41;;;;;;;7.63;5.43;;;;;;;0.95;89.56;95569.72;5057272;28;20260;-79
2022/01/27 05:43:08;;;;;;;8.15;6.53;;;;;;;1.00;89.71;95566.97;5056887;28;20205;-78
2022/01/27 05:45:35;;;;;;;9.55;6.88;;;;;;;0.92;90.05;95570.69;5056771;28;20200;-77
2022/01/27 05:48:03;;;;;;;8.02;6.32;;;;;;;0.95;90.66;95571.47;5005439;28;20207;-78
2022/01/27 05:50:30;;;;;;;10.23;7.20;;;;;;;0.95;90.94;95572.31;5057182;28;20222;-78
2022/01/27 05:52:57;;;;;;;8.52;7.68;;;;;;;0.99;91.09;95567.88;5056781;28;20207;-78
2022/01/27 05:55:24;;;;;;;9.18;7.70;;;;;;;0.92;91.08;95572.44;5056774;28;20209;-77
2022/01/27 05:57:51;;;;;;;7.28;6.43;;;;;;;0.93;91.44;95572.38;5056703;28;20226;-76
2022/01/27 06:00:19;;;;;;;9.20;6.90;;;;;;;0.91;91.76;95581.06;5053795;28;20294;-78
2022/01/27 06:02:46;;;;;;;7.80;6.45;;;;;;;0.90;92.17;95579.41;5037096;28;20204;-78
2022/01/27 06:05:15;;;;;;;8.65;7.38;;;;;;;0.91;92.91;95578.50;5037211;28;20243;-79
2022/01/27 06:07:42;;;;;;;9.02;7.15;;;;;;;0.96;92.33;95583.50;5036530;28;20550;-78
2022/01/27 06:10:09;;;;;;;7.90;7.03;;;;;;;0.99;92.38;95589.38;5036366;28;20437;-80
2022/01/27 06:12:45;;;;;;;12.07;7.43;;;;;;;1.03;91.98;95590.13;5037245;28;20188;-76
2022/01/27 06:15:12;;;;;;;14.43;9.40;;;;;;;1.07;92.04;95597.69;5036780;28;20209;-79
2022/01/27 06:17:39;;;;;;;17.98;10.18;;;;;;;1.10;91.71;95597.56;5036666;28;20232;-78
2022/01/27 06:20:08;;;;;;;15.25;10.23;;;;;;;1.13;91.50;95594.03;5036004;28;20205;-78
2022/01/27 06:22:36;;;;;;;16.08;10.25;;;;;;;1.11;91.72;95588.94;4986027;28;20211;-78
2022/01/27 06:25:04;;;;;;;17.98;10.82;;;;;;;1.06;91.74;95593.44;5036140;28;20559;-78
2022/01/27 06:27:31;;;;;;;21.90;14.98;;;;;;;1.10;92.19;95596.75;5036178;28;20640;-79
2022/01/27 06:29:58;;;;;;;33.00;18.65;;;;;;;1.19;93.05;95596.41;5036087;28;20635;-78
2022/01/27 06:32:25;;;;;;;10.45;8.30;;;;;;;1.11;92.19;95604.44;5036054;28;20572;-79
2022/01/27 06:34:51;;;;;;;11.55;8.70;;;;;;;1.19;92.09;95601.59;4985109;28;20217;-78
2022/01/27 06:37:18;;;;;;;13.43;9.98;;;;;;;1.23;91.39;95604.00;5044760;28;20691;-78
2022/01/27 06:39:47;;;;;;;18.38;11.93;;;;;;;1.27;91.30;95614.22;5055958;28;20200;-78
2022/01/27 06:42:13;;;;;;;16.10;11.45;;;;;;;1.25;91.22;95614.28;5055525;28;20214;-77
2022/01/27 06:44:40;;;;;;;16.35;10.73;;;;;;;1.23;91.24;95610.91;5020749;28;20209;-79
2022/01/27 06:47:07;;;;;;;14.77;11.93;;;;;;;1.21;91.38;95600.63;5055556;28;20299;-78
2022/01/27 06:49:35;;;;;;;14.68;10.18;;;;;;;1.21;91.49;95603.22;5055471;28;20206;-78
2022/01/27 06:52:01;;;;;;;13.50;10.40;;;;;;;1.24;91.32;95608.28;5056230;28;20207;-78
2022/01/27 06:54:28;;;;;;;12.82;9.75;;;;;;;1.22;90.69;95606.66;5055750;28;20210;-77
2022/01/27 06:56:57;;;;;;;14.07;9.55;;;;;;;1.23;91.22;95605.75;5055640;28;20239;-79
2022/01/27 06:59:23;;;;;;;12.82;8.77;;;;;;;1.24;91.01;95613.44;5055717;28;20250;-78
2022/01/27 07:01:50;;;;;;;13.20;8.43;;;;;;;1.22;91.20;95602.31;5055274;28;20542;-77
2022/01/27 07:04:17;;;;;;;13.43;11.02;;;;;;;1.20;91.02;95605.84;5055668;28;20217;-78
2022/01/27 07:06:44;;;;;;;17.42;11.40;;;;;;;1.22;91.21;95607.47;5055592;28;20211;-78
2022/01/27 07:09:11;;;;;;;16.58;11.73;;;;;;;1.27;91.05;95606.47;5055300;28;20209;-78
2022/01/27 07:11:38;;;;;;;14.27;11.48;;;;;;;1.32;91.12;95609.72;5020310;28;20205;-77
2022/01/27 07:14:06;;;;;;;14.65;10.57;;;;;;;1.33;90.91;95608.81;5055462;28;20196;-77
2022/01/27 07:16:34;;;;;;;15.15;11.02;;;;;;;1.35;90.98;95607.84;5055412;28;20212;-78
2022/01/27 07:19:01;;;;;;;17.83;12.77;;;;;;;1.37;90.83;95615.56;5004065;28;20223;-77
2022/01/27 07:21:28;;;;;;;15.90;10.60;;;;;;;1.48;90.84;95623.78;5003908;28;20207;-82
2022/01/27 07:23:55;;;;;;;13.63;10.52;;;;;;;1.48;89.98;95610.84;5055021;28;20432;-78
2022/01/27 07:26:25;;;;;;;15.32;11.85;;;;;;;1.45;90.36;95619.56;5055214;28;20221;-78
2022/01/27 07:28:52;;;;;;;18.42;12.68;;;;;;;1.38;90.33;95619.81;5046520;28;20228;-80
2022/01/27 07:31:21;;;;;;;18.35;12.82;;;;;;;1.53;90.02;95622.69;4998744;28;20574;-77
2022/01/27 07:33:48;;;;;;;17.73;13.55;;;;;;;1.56;90.00;95626.91;5034948;28;20687;-78
2022/01/27 07:36:16;;;;;;;24.45;15.70;;;;;;;1.61;90.21;95619.81;5036289;28;20217;-78
2022/01/27 07:38:43;;;;;;;15.80;12.23;;;;;;;1.66;89.72;95628.22;5055196;28;20212;-77
2022/01/27 07:41:13;;;;;;;13.77;10.73;;;;;;;1.56;89.74;95626.91;5003074;28;20261;-77
2022/01/27 07:43:40;;;;;;;18.83;11.18;;;;;;;1.59;89.36;95620.78;5055232;28;20209;-77
2022/01/27 07:46:07;;;;;;;17.60;11.45;;;;;;;1.58;89.15;95619.94;5054479;28;20205;-77
2022/01/27 07:48:36;;;;;;;21.77;14.98;;;;;;;1.61;89.76;95618.97;5056236;28;20203;-78
2022/01/27 07:51:03;;;;;;;24.33;16.02;;;;;;;1.58;89.95;95624.25;5063359;28;20216;-77
2022/01/27 07:53:30;;;;;;;21.40;14.50;;;;;;;1.65;89.93;95623.97;5055030;28;20208;-77
2022/01/27 07:55:57;;;;;;;24.83;15.10;;;;;;;1.68;89.79;95625.59;5054267;28;20915;-77
2022/01/27 07:58:24;;;;;;;30.10;15.55;;;;;;;1.72;89.68;95629.72;5054445;28;20216;-78
2022/01/27 08:00:51;;;;;;;22.30;15.20;;;;;;;1.75;89.39;95630.50;5053890;28;20220;-77
2022/01/27 08:03:18;;;;;;;24.80;15.75;;;;;;;1.81;88.96;95638.00;5054214;28;20565;-76
2022/01/27 08:05:46;;;;;;;21.88;13.13;;;;;;;1.79;88.20;95634.63;5054208;28;20201;-78
2022/01/27 08:08:13;;;;;;;19.23;14.30;;;;;;;1.84;89.15;95631.88;5053645;28;20599;-79
2022/01/27 08:10:40;;;;;;;23.33;16.20;;;;;;;1.81;88.91;95630.25;5019459;28;20455;-78
2022/01/27 08:13:07;;;;;;;21.77;13.57;;;;;;;1.82;88.74;95639.69;5054173;28;20215;-77
2022/01/27 08:15:35;;;;;;;25.88;16.58;;;;;;;1.70;89.09;95631.53;5054406;28;20445;-78
2022/01/27 08:18:02;;;;;;;19.25;14.10;;;;;;;1.73;89.23;95634.84;5053569;28;20233;-77
2022/01/27 08:20:29;;;;;;;23.00;16.95;;;;;;;1.62;89.08;95631.00;5053847;28;20212;-77
2022/01/27 08:22:58;;;;;;;36.17;24.47;;;;;;;1.65;89.83;95638.63;5053628;28;20209;-76
2022/01/27 08:25:26;;;;;;;43.72;29.45;;;;;;;1.65;89.84;95636.06;5003072;28;20449;-76
2022/01/27 08:27:56;;;;;;;36.20;24.20;;;;;;;1.56;90.07;95632.06;5053186;28;20624;-78
2022/01/27 08:30:27;;;;;;;26.88;16.52;;;;;;;1.58;89.81;95639.78;5034129;28;20267;-77
2022/01/27 08:32:59;;;;;;;25.02;16.75;;;;;;;1.62;90.10;95636.16;5034053;28;20296;-78
2022/01/27 08:35:26;;;;;;;20.53;15.10;;;;;;;1.67;89.82;95644.59;5006048;28;20576;-77
2022/01/27 08:37:53;;;;;;;37.90;19.85;;;;;;;1.62;90.67;95649.94;5035057;28;20477;-76
2022/01/27 08:40:22;;;;;;;42.13;19.23;;;;;;;1.71;90.30;95648.75;5034295;28;20255;-78
2022/01/27 08:42:49;;;;;;;47.63;23.33;;;;;;;1.67;89.68;95642.00;5033537;28;20201;-77
2022/01/27 08:45:20;;;;;;;26.83;15.37;;;;;;;1.72;89.96;95646.09;5034095;28;20205;-77
2022/01/27 08:47:48;;;;;;;55.63;22.57;;;;;;;1.68;89.92;95652.28;5033845;28;20452;-76
2022/01/27 08:50:15;;;;;;;21.25;13.52;;;;;;;1.72;90.55;95653.84;5033460;28;20446;-78
2022/01/27 08:52:44;;;;;;;36.37;19.50;;;;;;;1.75;90.26;95658.09;5033406;28;20288;-78
2022/01/27 08:55:12;;;;;;;41.08;22.63;;;;;;;1.80;90.10;95648.41;5033602;28;20447;-78
2022/01/27 08:57:41;;;;;;;52.58;25.38;;;;;;;1.81;90.06;95653.53;5033808;28;20307;-76
2022/01/27 09:00:10;;;;;;;36.55;22.67;;;;;;;1.84;89.49;95657.75;5033627;28;20201;-78
2022/01/27 09:02:37;;;;;;;31.63;19.63;;;;;;;1.78;89.67;95658.81;4998755;28;20548;-76
2022/01/27 09:05:05;;;;;;;29.13;18.43;;;;;;;1.80;89.54;95656.19;5044451;28;20458;-79
2022/01/27 09:07:34;;;;;;;42.58;23.63;;;;;;;1.80;89.17;95654.44;5053361;28;20444;-78
2022/01/27 09:10:01;;;;;;;28.52;18.23;;;;;;;1.75;88.90;95653.78;5051890;28;20566;-78
2022/01/27 09:12:27;;;;;;;41.37;23.30;;;;;;;1.79;89.49;95663.09;5001151;28;20211;-79
2022/01/27 09:14:58;;;;;;;26.60;17.10;;;;;;;1.85;89.54;95654.25;5053197;28;20458;-78
2022/01/27 09:17:26;;;;;;;27.33;17.25;;;;;;;1.95;89.25;95659.91;5053559;28;20239;-79
2022/01/27 09:19:54;;;;;;;30.10;19.30;;;;;;;2.05;90.03;95661.25;5051000;28;20655;-79
2022/01/27 09:22:22;;;;;;;28.60;18.65;;;;;;;2.17;90.86;95665.94;5033377;28;20209;-78
2022/01/27 09:24:54;;;;;;;22.73;15.33;;;;;;;2.18;89.21;95665.88;5033992;28;20200;-78
2022/01/27 09:27:21;;;;;;;24.73;15.50;;;;;;;2.15;88.05;95663.41;4998160;28;20449;-77
2022/01/27 09:29:48;;;;;;;30.70;16.57;;;;;;;2.19;88.32;95653.75;5032934;28;20459;-78
2022/01/27 09:32:17;;;;;;;17.60;12.77;;;;;;;2.23;87.22;95655.31;5033187;28;20450;-78
2022/01/27 09:34:44;;;;;;;21.65;15.05;;;;;;;2.20;87.59;95649.44;5033203;28;20440;-78
2022/01/27 09:37:14;;;;;;;18.17;13.60;;;;;;;2.20;87.49;95654.59;5032926;28;20558;-79
2022/01/27 09:39:42;;;;;;;31.57;16.60;;;;;;;2.22;87.91;95655.38;5033262;28;20207;-78
2022/01/27 09:42:09;;;;;;;22.83;13.90;;;;;;;2.23;87.29;95644.97;5033489;28;20433;-79
2022/01/27 09:44:37;;;;;;;21.13;13.80;;;;;;;2.25;86.88;95642.31;5033214;28;20455;-79
2022/01/27 09:47:07;;;;;;;19.27;12.83;;;;;;;2.33;86.41;95646.31;5033363;28;20450;-79
2022/01/27 09:49:39;;;;;;;26.93;17.40;;;;;;;2.38;86.22;95634.00;5032405;28;20454;-79
2022/01/27 09:52:06;;;;;;;19.63;13.43;;;;;;;2.42;85.63;95635.56;4982737;28;20503;-79
2022/01/27 09:54:34;;;;;;;29.97;20.40;;;;;;;2.49;85.71;95625.78;5031896;28;20450;-79
2022/01/27 09:57:02;;;;;;;30.17;20.00;;;;;;;2.53;84.51;95629.91;5031799;28;20946;-79
2022/01/27 09:59:28;;;;;;;41.03;25.70;;;;;;;2.58;84.28;95630.56;4981332;28;20845;-78
2022/01/27 10:01:59;;;;;;;31.70;21.30;;;;;;;2.66;83.71;95627.69;5031414;28;20450;-79
2022/01/27 10:04:42;;;;;;;45.97;28.57;;;;;;;2.82;83.69;95628.69;4996870;28;20444;-79
2022/01/27 10:07:09;;;;;;;22.67;20.30;;;;;;;2.88;82.58;95625.84;5031919;28;20481;-79
2022/01/27 10:09:37;;;;;;;21.50;15.93;;;;;;;2.90;81.52;95626.63;5031638;28;20802;-79
2022/01/27 10:12:06;;;;;;;22.30;15.93;;;;;;;2.88;81.45;95625.00;5031625;28;20467;-79
2022/01/27 10:14:36;;;;;;;30.07;19.13;;;;;;;2.89;81.11;95629.28;5031423;28;20500;-79
2022/01/27 10:17:08;;;;;;;22.97;15.03;;;;;;;2.94;82.16;95623.00;5031748;28;20831;-79
2022/01/27 10:19:36;;;;;;;24.50;16.17;;;;;;;2.97;81.60;95620.28;5031303;28;20860;-78
2022/01/27 10:22:07;;;;;;;27.33;17.40;;;;;;;2.94;81.21;95616.97;5031547;28;20453;-79
2022/01/27 10:24:35;;;;;;;21.40;14.33;;;;;;;2.90;81.36;95613.69;5034254;28;20466;-78
2022/01/27 10:27:21;;;;;;;26.50;15.53;;;;;;;2.86;81.38;95614.69;5035074;28;20446;-79
2022/01/27 10:30:35;;;;;;;21.57;13.83;;;;;;;2.84;81.16;95616.50;5034946;28;20514;-79
2022/01/27 10:32:54;;;;;;;24.63;15.20;;;;;;;2.79;80.89;95618.47;5034648;28;20465;-79
2022/01/27 10:35:23;;;;;;;24.40;14.47;;;;;;;2.79;80.07;95613.28;5035128;28;20513;-78
2022/01/27 10:38:02;;;;;;;17.97;13.50;;;;;;;2.69;79.32;95619.78;5034764;28;20899;-79
2022/01/27 10:40:32;;;;;;;18.33;13.27;;;;;;;2.59;78.79;95619.28;4983762;28;20431;-80
2022/01/27 10:43:12;;;;;;;16.40;12.30;;;;;;;2.63;79.61;95613.09;5034711;28;20444;-80
2022/01/27 10:45:58;;;;;;;23.77;14.37;;;;;;;2.57;79.85;95617.69;5035212;28;20567;-79
2022/01/27 10:48:28;;;;;;;20.00;13.23;;;;;;;2.63;79.99;95610.50;5034923;28;20460;-79
2022/01/27 10:51:01;;;;;;;17.13;11.20;;;;;;;2.65;79.30;95600.94;5035004;28;20447;-78
2022/01/27 10:53:58;;;;;;;15.07;8.83;;;;;;;2.58;77.89;95609.00;5035088;28;20903;-79
2022/01/27 10:56:31;;;;;;;19.03;12.97;;;;;;;2.65;79.32;95603.53;5035940;28;20909;-80
2022/01/27 10:59:00;;;;;;;18.03;13.67;;;;;;;2.69;79.92;95601.63;5034750;28;20543;-78
2022/01/27 11:01:29;;;;;;;18.63;12.43;;;;;;;2.70;79.53;95603.31;5034210;28;20454;-80
2022/01/27 11:03:59;;;;;;;14.87;10.17;;;;;;;2.78;78.30;95591.72;5034411;28;20531;-80
2022/01/27 11:06:28;;;;;;;12.90;10.53;;;;;;;2.87;77.07;95585.28;5034385;28;20449;-79
2022/01/27 11:08:58;;;;;;;18.67;11.80;;;;;;;3.07;76.39;95597.38;5036070;28;20522;-79
2022/01/27 11:11:27;;;;;;;14.73;9.60;;;;;;;3.19;74.98;95585.63;5035853;28;20491;-79
2022/01/27 11:13:58;;;;;;;12.40;9.93;;;;;;;3.14;75.53;95584.97;5035912;28;20972;-80
2022/01/27 11:16:30;;;;;;;11.10;9.23;;;;;;;3.22;75.43;95588.09;5036032;28;20441;-79
2022/01/27 11:19:12;;;;;;;10.70;8.80;;;;;;;3.15;74.63;95594.44;5035264;28;20481;-79
2022/01/27 11:21:42;;;;;;;16.73;10.50;;;;;;;3.10;74.81;95584.28;5035532;28;20532;-79
2022/01/27 11:24:24;;;;;;;10.53;9.43;;;;;;;3.05;75.03;95586.22;5035539;28;20534;-78
2022/01/27 11:26:54;;;;;;;15.77;11.60;;;;;;;2.96;75.43;95569.34;5036085;28;20446;-79
2022/01/27 11:29:23;;;;;;;10.07;7.87;;;;;;;3.00;75.13;95575.22;5015560;28;20444;-79
2022/01/27 11:32:01;;;;;;;9.97;7.80;;;;;;;3.02;74.04;95566.47;5075004;28;20471;-78
2022/01/27 11:34:50;;;;;;;13.57;10.50;;;;;;;3.17;74.51;95571.88;5074291;28;20535;-80
2022/01/27 11:37:30;;;;;;;16.87;10.90;;;;;;;3.26;74.30;95568.88;5074757;28;20497;-80
2022/01/27 11:40:04;;;;;;;11.73;9.33;;;;;;;3.34;73.87;95565.00;5074809;28;20488;-79
2022/01/27 11:43:03;;;;;;;12.93;10.43;;;;;;;3.41;73.04;95560.38;5075506;28;20461;-79
2022/01/27 11:45:35;;;;;;;17.80;9.40;;;;;;;3.33;73.01;95563.34;4993227;28;20550;-80
2022/01/27 11:48:08;;;;;;;12.90;9.00;;;;;;;3.36;73.18;95557.16;4995231;28;20456;-81
2022/01/27 11:50:39;;;;;;;13.70;10.80;;;;;;;3.40;73.55;95559.53;4994211;28;20448;-79
2022/01/27 11:53:11;;;;;;;13.40;9.10;;;;;;;3.53;71.75;95559.00;4993463;28;20440;-78
2022/01/27 11:55:44;;;;;;;14.57;11.33;;;;;;;3.62;72.49;95556.78;4993397;28;20444;-80
2022/01/27 11:58:19;;;;;;;18.10;14.27;;;;;;;3.80;71.52;95551.66;4992994;28;20452;-79
2022/01/27 12:01:11;;;;;;;16.10;10.60;;;;;;;3.91;71.76;95549.38;4992792;28;20918;-80
2022/01/27 12:03:39;;;;;;;15.73;11.30;;;;;;;3.98;70.63;95561.16;4992353;28;20947;-80
2022/01/27 12:06:18;;;;;;;12.30;11.00;;;;;;;3.96;71.18;95556.03;4993701;28;20838;-79